createdAt,value
2023-04-27T00:01:58.464Z,99.90
2023-04-27T00:07:01.505Z,99.90
2023-04-27T00:12:04.573Z,99.90
2023-04-27T00:17:08.795Z,99.90
2023-04-27T00:22:12.039Z,99.90
2023-04-27T00:27:14.931Z,99.90
2023-04-27T00:32:19.627Z,99.90
2023-04-27T00:37:22.564Z,99.90
2023-04-27T00:42:25.521Z,99.90
2023-04-27T00:47:30.221Z,99.90
2023-04-27T00:52:33.200Z,99.90
2023-04-27T00:57:36.173Z,99.90
2023-04-27T01:02:42.299Z,99.90
2023-04-27T01:07:45.306Z,99.90
2023-04-27T01:12:48.223Z,99.90
2023-04-27T01:17:58.825Z,99.90
2023-04-27T01:23:01.817Z,99.90
2023-04-27T01:28:06.304Z,99.90
2023-04-27T01:33:09.276Z,99.90
2023-04-27T01:38:12.340Z,99.90
2023-04-27T01:43:16.572Z,99.90
2023-04-27T01:48:19.427Z,99.90
2023-04-27T01:53:22.342Z,99.90
2023-04-27T01:58:26.746Z,99.90
2023-04-27T02:03:29.843Z,99.90
2023-04-27T02:08:32.950Z,99.90
2023-04-27T02:13:37.818Z,99.90
2023-04-27T02:18:41.686Z,99.90
2023-04-27T02:23:45.948Z,99.90
2023-04-27T02:28:50.991Z,99.90
2023-04-27T02:33:54.252Z,99.90
2023-04-27T02:38:57.160Z,99.90
2023-04-27T02:44:01.417Z,99.90
2023-04-27T02:49:04.382Z,99.90
2023-04-27T02:54:07.286Z,99.90
2023-04-27T02:59:11.687Z,99.90
2023-04-27T03:04:17.525Z,99.90
2023-04-27T03:09:20.624Z,99.90
2023-04-27T03:14:24.886Z,99.90
2023-04-27T03:19:27.960Z,99.90
2023-04-27T03:24:31.037Z,99.90
2023-04-27T03:29:35.381Z,99.90
2023-04-27T03:34:38.291Z,99.90
2023-04-27T03:39:41.761Z,99.90
2023-04-27T03:44:47.320Z,99.90
2023-04-27T03:49:50.261Z,99.90
2023-04-27T03:54:53.159Z,99.90
2023-04-27T03:59:58.812Z,99.90
2023-04-27T04:05:02.053Z,99.90
2023-04-27T04:10:05.688Z,99.90
2023-04-27T04:15:12.215Z,99.90
2023-04-27T04:20:15.353Z,99.90
2023-04-27T04:25:18.797Z,99.90
2023-04-27T04:30:23.901Z,99.90
2023-04-27T04:35:26.834Z,99.90
2023-04-27T04:40:29.849Z,99.90
2023-04-27T04:45:34.274Z,99.90
2023-04-27T04:50:37.228Z,99.90
2023-04-27T04:55:41.043Z,99.90
2023-04-27T05:00:46.684Z,99.90
2023-04-27T05:05:49.626Z,99.90
2023-04-27T05:10:52.818Z,99.90
2023-04-27T05:15:57.226Z,99.90
2023-04-27T05:21:00.263Z,99.90
2023-04-27T05:26:03.173Z,99.90
2023-04-27T05:31:07.484Z,99.90
2023-04-27T05:36:11.012Z,99.90
2023-04-27T05:41:13.986Z,99.90
2023-04-27T05:46:18.274Z,99.90
2023-04-27T05:51:21.362Z,99.90
2023-04-27T05:56:24.265Z,99.90
2023-04-27T06:01:28.580Z,99.90
2023-04-27T06:06:33.365Z,99.90
2023-04-27T06:11:36.256Z,99.90
2023-04-27T06:16:41.284Z,99.90
2023-04-27T06:21:44.182Z,99.90
2023-04-27T06:26:47.074Z,99.90
2023-04-27T06:31:51.335Z,99.90
2023-04-27T06:36:54.243Z,99.90
2023-04-27T06:41:57.318Z,99.90
2023-04-27T06:47:02.921Z,99.90
2023-04-27T06:52:06.569Z,99.90
2023-04-27T06:57:09.472Z,99.90
2023-04-27T07:02:13.728Z,99.90
2023-04-27T07:07:16.642Z,99.90
2023-04-27T07:12:19.594Z,99.90
2023-04-27T07:17:23.876Z,99.90
2023-04-27T07:22:26.772Z,99.90
2023-04-27T07:27:29.670Z,99.90
2023-04-27T07:32:33.965Z,99.90
2023-04-27T07:37:37.327Z,99.90
2023-04-27T07:42:41.308Z,99.90
2023-04-27T07:47:46.314Z,99.90
2023-04-27T07:52:49.172Z,99.90
2023-04-27T07:57:53.032Z,99.90
2023-04-27T08:02:57.776Z,99.90
2023-04-27T08:08:01.058Z,99.90
2023-04-27T08:13:04.825Z,99.90
2023-04-27T08:18:09.117Z,99.90
2023-04-27T08:23:12.407Z,99.90
2023-04-27T08:28:16.526Z,99.90
2023-04-27T08:33:20.834Z,99.90
2023-04-27T08:38:25.605Z,99.90
2023-04-27T08:43:33.265Z,99.90
2023-04-27T08:48:37.502Z,99.90
2023-04-27T08:53:49.196Z,99.90
2023-04-27T08:58:52.526Z,99.90
2023-04-27T09:04:01.980Z,99.90
2023-04-27T09:09:06.968Z,99.90
2023-04-27T09:14:18.271Z,99.90
2023-04-27T09:19:27.415Z,99.90
2023-04-27T09:24:30.547Z,99.90
2023-04-27T09:29:34.570Z,99.90
2023-04-27T09:34:42.019Z,99.90
2023-04-27T09:39:46.510Z,99.90
2023-04-27T09:44:50.133Z,99.90
2023-04-27T09:49:54.382Z,99.90
2023-04-27T09:55:00.306Z,99.90
2023-04-27T10:00:17.209Z,99.90
2023-04-27T10:05:35.968Z,99.90
2023-04-27T10:10:54.386Z,99.90
2023-04-27T10:15:57.255Z,99.90
2023-04-27T10:21:12.411Z,99.90
2023-04-27T10:26:22.978Z,99.90
2023-04-27T10:31:29.190Z,99.90
2023-04-27T10:36:38.018Z,99.90
2023-04-27T10:41:50.994Z,99.90
2023-04-27T10:46:54.793Z,99.90
2023-04-27T10:52:00.780Z,99.90
2023-04-27T10:57:05.313Z,99.90
2023-04-27T11:02:12.237Z,99.90
2023-04-27T11:07:26.395Z,99.90
2023-04-27T11:12:29.432Z,99.90
2023-04-27T11:17:33.881Z,99.90
2023-04-27T11:22:45.302Z,99.90
2023-04-27T11:27:48.167Z,99.90
2023-04-27T11:32:51.756Z,99.90
2023-04-27T11:37:59.523Z,99.90
2023-04-27T11:43:04.396Z,99.90
2023-04-27T11:48:08.347Z,99.90
2023-04-27T11:53:12.611Z,98.80
2023-04-27T11:58:16.194Z,99.20
2023-04-27T12:03:19.260Z,99.40
2023-04-27T12:08:24.129Z,98.80
2023-04-27T12:13:27.219Z,97.50
2023-04-27T12:18:30.146Z,97.00
2023-04-27T12:23:34.465Z,96.70
2023-04-27T12:28:38.124Z,96.10
2023-04-27T12:33:40.984Z,96.30
2023-04-27T12:38:47.261Z,96.30
2023-04-27T12:43:50.197Z,96.00
2023-04-27T12:48:53.187Z,96.30
2023-04-27T12:53:58.716Z,95.60
2023-04-27T12:59:03.892Z,95.60
2023-04-27T13:04:08.105Z,95.20
2023-04-27T13:09:13.186Z,94.70
2023-04-27T13:14:16.306Z,94.20
2023-04-27T13:19:19.473Z,94.20
2023-04-27T13:24:24.621Z,93.50
2023-04-27T13:29:27.501Z,93.20
2023-04-27T13:34:30.413Z,92.50
2023-04-27T13:39:34.945Z,91.60
2023-04-27T13:44:37.883Z,91.20
2023-04-27T13:49:40.775Z,90.80
2023-04-27T13:54:45.307Z,90.30
2023-04-27T13:59:48.203Z,90.10
2023-04-27T14:04:51.721Z,89.40
2023-04-27T14:09:55.968Z,88.90
2023-04-27T14:14:58.914Z,88.90
2023-04-27T14:20:01.827Z,87.50
2023-04-27T14:25:07.031Z,86.20
2023-04-27T14:30:10.877Z,84.60
2023-04-27T14:35:13.804Z,83.50
2023-04-27T14:40:18.262Z,82.70
2023-04-27T14:45:22.895Z,81.50
2023-04-27T14:50:27.147Z,81.60
2023-04-27T14:55:31.565Z,83.00
2023-04-27T15:00:34.696Z,82.00
2023-04-27T15:05:37.657Z,81.50
2023-04-27T15:10:41.879Z,81.70
2023-04-27T15:15:46.095Z,81.10
2023-04-27T15:20:52.629Z,81.50
2023-04-27T15:25:59.197Z,81.20
2023-04-27T15:31:02.145Z,80.50
2023-04-27T15:36:05.580Z,79.80
2023-04-27T15:41:10.173Z,79.30
2023-04-27T15:46:14.722Z,78.10
2023-04-27T15:51:17.784Z,77.00
2023-04-27T15:56:22.066Z,76.60
2023-04-27T16:01:26.332Z,76.40
2023-04-27T16:06:34.930Z,75.80
2023-04-27T16:11:39.653Z,75.50
2023-04-27T16:16:42.581Z,74.70
2023-04-27T16:21:48.098Z,74.60
2023-04-27T16:26:52.417Z,74.40
2023-04-27T16:31:55.485Z,74.30
2023-04-27T16:36:58.544Z,73.40
2023-04-27T16:42:09.683Z,72.30
2023-04-27T16:47:12.735Z,72.20
2023-04-27T16:52:17.113Z,72.20
2023-04-27T16:57:21.549Z,72.00
2023-04-27T17:02:25.873Z,71.90
2023-04-27T17:07:32.715Z,72.00
2023-04-27T17:12:38.109Z,72.00
2023-04-27T17:17:41.285Z,71.40
2023-04-27T17:22:45.131Z,71.50
2023-04-27T17:27:49.372Z,72.00
2023-04-27T17:32:52.678Z,72.40
2023-04-27T17:37:55.868Z,73.10
2023-04-27T17:43:00.223Z,73.90
2023-04-27T17:48:03.434Z,75.10
2023-04-27T17:53:06.447Z,75.90
2023-04-27T17:58:11.205Z,77.40
2023-04-27T18:03:15.334Z,77.70
2023-04-27T18:08:18.548Z,78.30
2023-04-27T18:13:22.833Z,77.70
2023-04-27T18:18:26.853Z,77.60
2023-04-27T18:23:37.062Z,79.60
2023-04-27T18:28:41.772Z,80.00
2023-04-27T18:33:46.378Z,80.30
2023-04-27T18:38:49.262Z,81.70
2023-04-27T18:43:53.658Z,84.50
2023-04-27T18:48:56.587Z,87.40
2023-04-27T18:53:59.594Z,89.60
2023-04-27T18:59:05.484Z,90.60
2023-04-27T19:04:08.727Z,91.60
2023-04-27T19:09:11.875Z,91.90
2023-04-27T19:14:16.606Z,92.40
2023-04-27T19:19:19.731Z,93.20
2023-04-27T19:24:22.701Z,93.70
2023-04-27T19:29:27.408Z,94.60
2023-04-27T19:34:30.306Z,95.50
2023-04-27T19:39:34.671Z,96.00
2023-04-27T19:44:38.917Z,96.90
2023-04-27T19:49:41.832Z,97.80
2023-04-27T19:54:44.740Z,98.90
2023-04-27T19:59:49.122Z,99.90
2023-04-27T20:04:52.131Z,99.90
2023-04-27T20:09:55.317Z,99.90
2023-04-27T20:14:59.625Z,99.90
2023-04-27T20:20:02.906Z,99.90
2023-04-27T20:25:07.785Z,99.90
2023-04-27T20:30:12.797Z,99.90
2023-04-27T20:35:15.794Z,99.90
2023-04-27T20:40:18.954Z,99.90
2023-04-27T20:45:23.392Z,99.90
2023-04-27T20:50:26.419Z,99.90
2023-04-27T20:55:29.361Z,99.90
2023-04-27T21:00:33.602Z,99.90
2023-04-27T21:05:36.685Z,99.90
2023-04-27T21:10:39.619Z,99.90
2023-04-27T21:15:43.868Z,99.90
2023-04-27T21:20:46.786Z,99.90
2023-04-27T21:25:49.684Z,99.90
2023-04-27T21:30:54.001Z,99.90
2023-04-27T21:35:57.159Z,99.90
2023-04-27T21:41:00.246Z,99.90
2023-04-27T21:46:04.541Z,99.90
2023-04-27T21:51:07.500Z,99.90
2023-04-27T21:56:10.864Z,99.90
2023-04-27T22:01:15.153Z,99.90
2023-04-27T22:06:18.056Z,99.90
2023-04-27T22:11:21.221Z,99.90
2023-04-27T22:16:25.674Z,99.90
2023-04-27T22:21:28.913Z,99.90
2023-04-27T22:26:32.127Z,99.90
2023-04-27T22:31:36.560Z,99.90
2023-04-27T22:36:39.473Z,99.90
2023-04-27T22:41:42.363Z,99.90
2023-04-27T22:46:46.787Z,99.90
2023-04-27T22:51:50.224Z,99.90
2023-04-27T22:56:53.145Z,99.90
2023-04-27T23:01:57.415Z,99.90
2023-04-27T23:07:00.515Z,99.90
2023-04-27T23:12:04.118Z,99.90
2023-04-27T23:17:08.404Z,99.90
2023-04-27T23:22:11.294Z,99.90
2023-04-27T23:27:14.161Z,99.90
2023-04-27T23:32:18.403Z,99.90
2023-04-27T23:37:21.408Z,99.90
2023-04-27T23:42:24.248Z,99.90
2023-04-27T23:47:28.452Z,99.90
2023-04-27T23:52:31.332Z,99.90
2023-04-27T23:57:34.208Z,99.90
